sensor_id;sensor_type;location;lat;lon;timestamp;P1;durP1;ratioP1;P2;durP2;ratioP2
45402;SDS011;47427;51.976;5.326;2023-11-18T00:03:00;57.33;;;29.90;;
45402;SDS011;47427;51.976;5.326;2023-11-18T00:06:02;56.13;;;28.35;;
45402;SDS011;47427;51.976;5.326;2023-11-18T00:09:05;53.63;;;28.33;;
45402;SDS011;47427;51.976;5.326;2023-11-18T00:12:08;51.80;;;29.88;;
45402;SDS011;47427;51.976;5.326;2023-11-18T00:15:11;56.25;;;31.00;;
45402;SDS011;47427;51.976;5.326;2023-11-18T00:18:13;59.05;;;30.50;;
45402;SDS011;47427;51.976;5.326;2023-11-18T00:21:16;55.75;;;31.95;;
45402;SDS011;47427;51.976;5.326;2023-11-18T00:24:19;57.08;;;29.80;;
45402;SDS011;47427;51.976;5.326;2023-11-18T00:27:21;53.55;;;31.58;;
45402;SDS011;47427;51.976;5.326;2023-11-18T00:30:24;63.65;;;30.33;;
45402;SDS011;47427;51.976;5.326;2023-11-18T00:33:26;67.50;;;32.08;;
45402;SDS011;47427;51.976;5.326;2023-11-18T00:36:29;60.90;;;30.80;;
45402;SDS011;47427;51.976;5.326;2023-11-18T00:39:33;60.75;;;31.35;;
45402;SDS011;47427;51.976;5.326;2023-11-18T00:42:35;59.55;;;31.00;;
45402;SDS011;47427;51.976;5.326;2023-11-18T00:45:37;60.08;;;31.77;;
45402;SDS011;47427;51.976;5.326;2023-11-18T00:48:40;61.67;;;30.77;;
45402;SDS011;47427;51.976;5.326;2023-11-18T00:51:42;67.63;;;33.35;;
45402;SDS011;47427;51.976;5.326;2023-11-18T00:54:45;62.83;;;31.77;;
45402;SDS011;47427;51.976;5.326;2023-11-18T00:57:47;61.60;;;29.48;;
45402;SDS011;47427;51.976;5.326;2023-11-18T01:00:50;59.35;;;27.80;;
45402;SDS011;47427;51.976;5.326;2023-11-18T01:03:52;55.67;;;31.13;;
45402;SDS011;47427;51.976;5.326;2023-11-18T01:06:55;60.42;;;30.17;;
45402;SDS011;47427;51.976;5.326;2023-11-18T01:09:58;62.35;;;29.70;;
45402;SDS011;47427;51.976;5.326;2023-11-18T01:13:02;59.27;;;31.27;;
45402;SDS011;47427;51.976;5.326;2023-11-18T01:16:05;64.13;;;29.80;;
45402;SDS011;47427;51.976;5.326;2023-11-18T01:19:09;63.42;;;31.38;;
45402;SDS011;47427;51.976;5.326;2023-11-18T01:22:11;59.00;;;31.45;;
45402;SDS011;47427;51.976;5.326;2023-11-18T01:25:14;52.92;;;28.67;;
45402;SDS011;47427;51.976;5.326;2023-11-18T01:28:20;52.15;;;27.17;;
45402;SDS011;47427;51.976;5.326;2023-11-18T01:31:24;60.33;;;30.17;;
45402;SDS011;47427;51.976;5.326;2023-11-18T01:34:26;55.13;;;29.83;;
45402;SDS011;47427;51.976;5.326;2023-11-18T01:37:30;59.70;;;28.65;;
45402;SDS011;47427;51.976;5.326;2023-11-18T01:43:37;60.33;;;28.60;;
45402;SDS011;47427;51.976;5.326;2023-11-18T01:46:41;63.75;;;30.63;;
45402;SDS011;47427;51.976;5.326;2023-11-18T01:49:47;58.45;;;28.60;;
45402;SDS011;47427;51.976;5.326;2023-11-18T01:52:50;62.10;;;31.35;;
45402;SDS011;47427;51.976;5.326;2023-11-18T01:55:55;59.65;;;31.42;;
45402;SDS011;47427;51.976;5.326;2023-11-18T01:58:56;55.50;;;31.75;;
45402;SDS011;47427;51.976;5.326;2023-11-18T02:02:00;67.60;;;34.47;;
45402;SDS011;47427;51.976;5.326;2023-11-18T02:05:04;55.15;;;31.65;;
45402;SDS011;47427;51.976;5.326;2023-11-18T02:08:10;60.15;;;31.85;;
45402;SDS011;47427;51.976;5.326;2023-11-18T02:14:33;82.50;;;34.95;;
45402;SDS011;47427;51.976;5.326;2023-11-18T02:17:38;57.83;;;32.22;;
45402;SDS011;47427;51.976;5.326;2023-11-18T02:20:44;58.33;;;31.40;;
45402;SDS011;47427;51.976;5.326;2023-11-18T02:23:49;61.88;;;31.55;;
45402;SDS011;47427;51.976;5.326;2023-11-18T02:26:53;56.13;;;31.55;;
45402;SDS011;47427;51.976;5.326;2023-11-18T02:29:59;64.15;;;32.80;;
45402;SDS011;47427;51.976;5.326;2023-11-18T02:33:22;61.63;;;33.92;;
45402;SDS011;47427;51.976;5.326;2023-11-18T02:36:41;57.92;;;30.27;;
45402;SDS011;47427;51.976;5.326;2023-11-18T02:39:49;56.28;;;29.98;;
45402;SDS011;47427;51.976;5.326;2023-11-18T02:42:59;56.08;;;33.13;;
45402;SDS011;47427;51.976;5.326;2023-11-18T02:46:04;54.78;;;30.77;;
45402;SDS011;47427;51.976;5.326;2023-11-18T02:49:07;51.80;;;30.38;;
45402;SDS011;47427;51.976;5.326;2023-11-18T02:52:11;57.53;;;31.25;;
45402;SDS011;47427;51.976;5.326;2023-11-18T02:55:14;62.92;;;33.58;;
45402;SDS011;47427;51.976;5.326;2023-11-18T02:58:17;67.13;;;30.58;;
45402;SDS011;47427;51.976;5.326;2023-11-18T03:01:20;56.80;;;31.23;;
45402;SDS011;47427;51.976;5.326;2023-11-18T03:04:22;57.63;;;31.80;;
45402;SDS011;47427;51.976;5.326;2023-11-18T03:07:25;57.97;;;31.38;;
45402;SDS011;47427;51.976;5.326;2023-11-18T03:10:32;64.00;;;32.63;;
45402;SDS011;47427;51.976;5.326;2023-11-18T03:13:35;59.60;;;30.73;;
45402;SDS011;47427;51.976;5.326;2023-11-18T03:16:39;54.40;;;31.13;;
45402;SDS011;47427;51.976;5.326;2023-11-18T03:19:42;54.90;;;29.67;;
45402;SDS011;47427;51.976;5.326;2023-11-18T03:22:46;60.40;;;32.08;;
45402;SDS011;47427;51.976;5.326;2023-11-18T03:25:48;55.80;;;30.15;;
45402;SDS011;47427;51.976;5.326;2023-11-18T03:28:50;57.70;;;30.50;;
45402;SDS011;47427;51.976;5.326;2023-11-18T03:31:53;56.90;;;32.05;;
45402;SDS011;47427;51.976;5.326;2023-11-18T03:34:56;58.75;;;32.67;;
45402;SDS011;47427;51.976;5.326;2023-11-18T03:38:01;57.10;;;30.67;;
45402;SDS011;47427;51.976;5.326;2023-11-18T03:41:03;63.83;;;32.78;;
45402;SDS011;47427;51.976;5.326;2023-11-18T03:44:06;50.13;;;29.63;;
45402;SDS011;47427;51.976;5.326;2023-11-18T03:47:10;58.95;;;30.55;;
45402;SDS011;47427;51.976;5.326;2023-11-18T03:50:13;54.72;;;31.02;;
45402;SDS011;47427;51.976;5.326;2023-11-18T03:53:14;58.00;;;31.85;;
45402;SDS011;47427;51.976;5.326;2023-11-18T03:56:17;55.03;;;31.65;;
45402;SDS011;47427;51.976;5.326;2023-11-18T03:59:20;57.83;;;32.08;;
45402;SDS011;47427;51.976;5.326;2023-11-18T04:02:23;55.92;;;32.90;;
45402;SDS011;47427;51.976;5.326;2023-11-18T04:05:25;64.95;;;34.25;;
45402;SDS011;47427;51.976;5.326;2023-11-18T04:08:28;59.53;;;34.15;;
45402;SDS011;47427;51.976;5.326;2023-11-18T04:11:31;61.95;;;32.92;;
45402;SDS011;47427;51.976;5.326;2023-11-18T04:14:34;57.03;;;31.00;;
45402;SDS011;47427;51.976;5.326;2023-11-18T04:17:35;54.92;;;32.08;;
45402;SDS011;47427;51.976;5.326;2023-11-18T04:23:43;48.70;;;28.92;;
45402;SDS011;47427;51.976;5.326;2023-11-18T04:26:48;56.45;;;31.65;;
45402;SDS011;47427;51.976;5.326;2023-11-18T04:29:50;62.30;;;33.17;;
45402;SDS011;47427;51.976;5.326;2023-11-18T04:32:53;61.13;;;33.40;;
45402;SDS011;47427;51.976;5.326;2023-11-18T04:35:56;54.42;;;33.00;;
45402;SDS011;47427;51.976;5.326;2023-11-18T04:38:59;56.45;;;32.55;;
45402;SDS011;47427;51.976;5.326;2023-11-18T04:42:00;51.65;;;27.67;;
45402;SDS011;47427;51.976;5.326;2023-11-18T04:45:04;57.28;;;32.22;;
45402;SDS011;47427;51.976;5.326;2023-11-18T04:48:07;57.15;;;31.23;;
45402;SDS011;47427;51.976;5.326;2023-11-18T04:51:10;53.28;;;29.30;;
45402;SDS011;47427;51.976;5.326;2023-11-18T04:54:12;55.05;;;31.60;;
45402;SDS011;47427;51.976;5.326;2023-11-18T04:57:17;49.83;;;30.30;;
45402;SDS011;47427;51.976;5.326;2023-11-18T05:00:20;50.40;;;28.98;;
45402;SDS011;47427;51.976;5.326;2023-11-18T05:03:23;52.75;;;30.08;;
45402;SDS011;47427;51.976;5.326;2023-11-18T05:06:25;53.08;;;29.70;;
45402;SDS011;47427;51.976;5.326;2023-11-18T05:09:28;49.60;;;30.10;;
45402;SDS011;47427;51.976;5.326;2023-11-18T05:12:31;55.72;;;30.77;;
45402;SDS011;47427;51.976;5.326;2023-11-18T05:15:35;50.67;;;31.48;;
45402;SDS011;47427;51.976;5.326;2023-11-18T05:18:39;52.97;;;30.07;;
45402;SDS011;47427;51.976;5.326;2023-11-18T05:21:41;51.20;;;27.17;;
45402;SDS011;47427;51.976;5.326;2023-11-18T05:24:45;49.03;;;28.80;;
45402;SDS011;47427;51.976;5.326;2023-11-18T05:27:49;54.03;;;27.10;;
45402;SDS011;47427;51.976;5.326;2023-11-18T05:30:52;46.67;;;27.77;;
45402;SDS011;47427;51.976;5.326;2023-11-18T05:33:58;49.30;;;28.70;;
45402;SDS011;47427;51.976;5.326;2023-11-18T05:37:01;57.60;;;28.58;;
45402;SDS011;47427;51.976;5.326;2023-11-18T05:40:04;44.80;;;26.15;;
45402;SDS011;47427;51.976;5.326;2023-11-18T05:43:08;49.72;;;25.95;;
45402;SDS011;47427;51.976;5.326;2023-11-18T05:46:16;49.00;;;26.77;;
45402;SDS011;47427;51.976;5.326;2023-11-18T05:49:21;62.92;;;23.42;;
45402;SDS011;47427;51.976;5.326;2023-11-18T05:52:24;53.75;;;25.00;;
45402;SDS011;47427;51.976;5.326;2023-11-18T05:55:28;47.13;;;24.83;;
45402;SDS011;47427;51.976;5.326;2023-11-18T05:58:29;39.72;;;24.83;;
45402;SDS011;47427;51.976;5.326;2023-11-18T06:01:32;45.67;;;24.67;;
45402;SDS011;47427;51.976;5.326;2023-11-18T06:04:35;43.72;;;24.25;;
45402;SDS011;47427;51.976;5.326;2023-11-18T06:07:38;48.28;;;23.88;;
45402;SDS011;47427;51.976;5.326;2023-11-18T06:10:45;44.83;;;24.63;;
45402;SDS011;47427;51.976;5.326;2023-11-18T06:13:48;41.10;;;23.23;;
45402;SDS011;47427;51.976;5.326;2023-11-18T06:16:52;41.45;;;23.80;;
45402;SDS011;47427;51.976;5.326;2023-11-18T06:19:55;43.50;;;23.15;;
45402;SDS011;47427;51.976;5.326;2023-11-18T06:22:57;43.28;;;22.83;;
45402;SDS011;47427;51.976;5.326;2023-11-18T06:25:59;44.40;;;24.52;;
45402;SDS011;47427;51.976;5.326;2023-11-18T06:29:02;38.58;;;23.27;;
45402;SDS011;47427;51.976;5.326;2023-11-18T06:32:06;43.80;;;23.60;;
45402;SDS011;47427;51.976;5.326;2023-11-18T06:35:10;43.83;;;22.40;;
45402;SDS011;47427;51.976;5.326;2023-11-18T06:38:12;42.90;;;22.92;;
45402;SDS011;47427;51.976;5.326;2023-11-18T06:41:16;43.13;;;23.30;;
45402;SDS011;47427;51.976;5.326;2023-11-18T06:44:20;43.03;;;21.20;;
45402;SDS011;47427;51.976;5.326;2023-11-18T06:47:25;40.53;;;22.20;;
45402;SDS011;47427;51.976;5.326;2023-11-18T06:50:27;40.35;;;21.30;;
45402;SDS011;47427;51.976;5.326;2023-11-18T06:53:30;43.42;;;23.17;;
45402;SDS011;47427;51.976;5.326;2023-11-18T06:56:32;37.97;;;20.48;;
45402;SDS011;47427;51.976;5.326;2023-11-18T06:59:35;45.97;;;21.38;;
45402;SDS011;47427;51.976;5.326;2023-11-18T07:02:37;32.75;;;18.52;;
45402;SDS011;47427;51.976;5.326;2023-11-18T07:05:41;42.22;;;20.60;;
45402;SDS011;47427;51.976;5.326;2023-11-18T07:08:46;34.92;;;20.52;;
45402;SDS011;47427;51.976;5.326;2023-11-18T07:11:51;41.90;;;20.70;;
45402;SDS011;47427;51.976;5.326;2023-11-18T07:14:52;33.78;;;17.13;;
45402;SDS011;47427;51.976;5.326;2023-11-18T07:17:56;36.17;;;20.17;;
45402;SDS011;47427;51.976;5.326;2023-11-18T07:20:59;36.38;;;20.80;;
45402;SDS011;47427;51.976;5.326;2023-11-18T07:24:01;37.63;;;20.08;;
45402;SDS011;47427;51.976;5.326;2023-11-18T07:27:03;33.92;;;18.65;;
45402;SDS011;47427;51.976;5.326;2023-11-18T07:30:07;36.35;;;18.25;;
45402;SDS011;47427;51.976;5.326;2023-11-18T07:33:13;31.98;;;16.60;;
45402;SDS011;47427;51.976;5.326;2023-11-18T07:36:17;31.10;;;17.92;;
45402;SDS011;47427;51.976;5.326;2023-11-18T07:39:22;35.23;;;18.23;;
45402;SDS011;47427;51.976;5.326;2023-11-18T07:42:26;36.93;;;19.00;;
45402;SDS011;47427;51.976;5.326;2023-11-18T07:45:35;39.00;;;18.30;;
45402;SDS011;47427;51.976;5.326;2023-11-18T07:48:40;29.23;;;16.08;;
45402;SDS011;47427;51.976;5.326;2023-11-18T07:51:42;31.80;;;18.98;;
45402;SDS011;47427;51.976;5.326;2023-11-18T07:54:45;33.25;;;17.48;;
45402;SDS011;47427;51.976;5.326;2023-11-18T07:57:48;26.70;;;13.73;;
45402;SDS011;47427;51.976;5.326;2023-11-18T08:00:51;28.52;;;16.23;;
45402;SDS011;47427;51.976;5.326;2023-11-18T08:03:53;25.27;;;16.33;;
45402;SDS011;47427;51.976;5.326;2023-11-18T08:06:55;28.10;;;15.43;;
45402;SDS011;47427;51.976;5.326;2023-11-18T08:09:58;32.75;;;16.02;;
45402;SDS011;47427;51.976;5.326;2023-11-18T08:13:01;27.00;;;17.02;;
45402;SDS011;47427;51.976;5.326;2023-11-18T08:16:04;29.58;;;15.10;;
45402;SDS011;47427;51.976;5.326;2023-11-18T08:19:08;29.55;;;14.63;;
45402;SDS011;47427;51.976;5.326;2023-11-18T08:22:10;25.63;;;13.95;;
45402;SDS011;47427;51.976;5.326;2023-11-18T08:25:13;26.17;;;14.98;;
45402;SDS011;47427;51.976;5.326;2023-11-18T08:28:16;22.27;;;15.10;;
45402;SDS011;47427;51.976;5.326;2023-11-18T08:31:18;26.73;;;14.82;;
45402;SDS011;47427;51.976;5.326;2023-11-18T08:34:21;25.85;;;14.45;;
45402;SDS011;47427;51.976;5.326;2023-11-18T08:37:24;22.42;;;14.32;;
45402;SDS011;47427;51.976;5.326;2023-11-18T08:40:26;20.42;;;13.18;;
45402;SDS011;47427;51.976;5.326;2023-11-18T08:43:28;28.30;;;15.65;;
45402;SDS011;47427;51.976;5.326;2023-11-18T08:46:31;27.65;;;13.85;;
45402;SDS011;47427;51.976;5.326;2023-11-18T08:49:34;22.40;;;13.65;;
45402;SDS011;47427;51.976;5.326;2023-11-18T08:52:36;21.00;;;13.15;;
45402;SDS011;47427;51.976;5.326;2023-11-18T08:55:39;27.20;;;14.25;;
45402;SDS011;47427;51.976;5.326;2023-11-18T08:58:42;21.63;;;12.32;;
45402;SDS011;47427;51.976;5.326;2023-11-18T09:01:45;20.63;;;11.38;;
45402;SDS011;47427;51.976;5.326;2023-11-18T09:04:49;18.50;;;11.90;;
45402;SDS011;47427;51.976;5.326;2023-11-18T09:07:51;19.83;;;11.75;;
45402;SDS011;47427;51.976;5.326;2023-11-18T09:10:54;17.45;;;10.88;;
45402;SDS011;47427;51.976;5.326;2023-11-18T09:13:57;14.80;;;8.43;;
45402;SDS011;47427;51.976;5.326;2023-11-18T09:17:01;19.13;;;11.57;;
45402;SDS011;47427;51.976;5.326;2023-11-18T09:20:04;16.30;;;9.02;;
45402;SDS011;47427;51.976;5.326;2023-11-18T09:23:07;17.25;;;10.85;;
45402;SDS011;47427;51.976;5.326;2023-11-18T09:26:11;19.95;;;11.48;;
45402;SDS011;47427;51.976;5.326;2023-11-18T09:29:12;21.67;;;11.55;;
45402;SDS011;47427;51.976;5.326;2023-11-18T09:32:23;27.17;;;11.52;;
45402;SDS011;47427;51.976;5.326;2023-11-18T09:35:27;18.75;;;10.60;;
45402;SDS011;47427;51.976;5.326;2023-11-18T09:38:33;16.55;;;8.57;;
45402;SDS011;47427;51.976;5.326;2023-11-18T09:41:41;20.27;;;8.95;;
45402;SDS011;47427;51.976;5.326;2023-11-18T09:44:44;25.05;;;9.57;;
45402;SDS011;47427;51.976;5.326;2023-11-18T09:47:50;17.58;;;9.85;;
45402;SDS011;47427;51.976;5.326;2023-11-18T09:50:55;12.70;;;9.55;;
45402;SDS011;47427;51.976;5.326;2023-11-18T09:54:04;20.00;;;10.00;;
45402;SDS011;47427;51.976;5.326;2023-11-18T09:57:20;15.18;;;9.65;;
45402;SDS011;47427;51.976;5.326;2023-11-18T10:00:31;24.10;;;11.02;;
45402;SDS011;47427;51.976;5.326;2023-11-18T10:03:34;18.88;;;10.45;;
45402;SDS011;47427;51.976;5.326;2023-11-18T10:06:36;15.50;;;9.63;;
45402;SDS011;47427;51.976;5.326;2023-11-18T10:09:41;22.23;;;10.88;;
45402;SDS011;47427;51.976;5.326;2023-11-18T10:12:45;14.45;;;9.40;;
45402;SDS011;47427;51.976;5.326;2023-11-18T10:16:10;16.05;;;9.05;;
45402;SDS011;47427;51.976;5.326;2023-11-18T10:19:12;19.45;;;8.43;;
45402;SDS011;47427;51.976;5.326;2023-11-18T10:22:23;23.00;;;11.07;;
45402;SDS011;47427;51.976;5.326;2023-11-18T10:25:34;20.95;;;8.80;;
45402;SDS011;47427;51.976;5.326;2023-11-18T10:28:37;14.50;;;8.20;;
45402;SDS011;47427;51.976;5.326;2023-11-18T10:31:39;17.98;;;7.80;;
45402;SDS011;47427;51.976;5.326;2023-11-18T10:34:47;18.33;;;9.60;;
45402;SDS011;47427;51.976;5.326;2023-11-18T10:37:53;15.10;;;7.60;;
45402;SDS011;47427;51.976;5.326;2023-11-18T10:40:56;14.02;;;7.75;;
45402;SDS011;47427;51.976;5.326;2023-11-18T10:44:08;16.70;;;8.10;;
45402;SDS011;47427;51.976;5.326;2023-11-18T10:50:20;16.55;;;6.93;;
45402;SDS011;47427;51.976;5.326;2023-11-18T10:53:24;21.73;;;7.85;;
45402;SDS011;47427;51.976;5.326;2023-11-18T10:56:27;15.27;;;6.65;;
45402;SDS011;47427;51.976;5.326;2023-11-18T10:59:34;11.07;;;7.05;;
45402;SDS011;47427;51.976;5.326;2023-11-18T11:02:39;16.80;;;6.63;;
45402;SDS011;47427;51.976;5.326;2023-11-18T11:05:43;12.05;;;6.00;;
45402;SDS011;47427;51.976;5.326;2023-11-18T11:08:45;15.88;;;7.20;;
45402;SDS011;47427;51.976;5.326;2023-11-18T11:11:53;17.65;;;8.70;;
45402;SDS011;47427;51.976;5.326;2023-11-18T11:15:12;16.75;;;8.23;;
45402;SDS011;47427;51.976;5.326;2023-11-18T11:18:23;18.08;;;7.68;;
45402;SDS011;47427;51.976;5.326;2023-11-18T11:21:42;20.35;;;8.50;;
45402;SDS011;47427;51.976;5.326;2023-11-18T11:25:03;20.58;;;9.30;;
45402;SDS011;47427;51.976;5.326;2023-11-18T11:32:30;16.13;;;8.45;;
45402;SDS011;47427;51.976;5.326;2023-11-18T11:35:40;14.18;;;7.72;;
45402;SDS011;47427;51.976;5.326;2023-11-18T11:38:49;19.63;;;9.05;;
45402;SDS011;47427;51.976;5.326;2023-11-18T11:41:53;13.50;;;8.57;;
45402;SDS011;47427;51.976;5.326;2023-11-18T11:44:59;19.52;;;9.30;;
45402;SDS011;47427;51.976;5.326;2023-11-18T11:48:02;13.30;;;8.65;;
45402;SDS011;47427;51.976;5.326;2023-11-18T11:51:30;20.15;;;9.85;;
45402;SDS011;47427;51.976;5.326;2023-11-18T11:55:18;18.27;;;8.52;;
45402;SDS011;47427;51.976;5.326;2023-11-18T11:58:46;15.07;;;8.80;;
45402;SDS011;47427;51.976;5.326;2023-11-18T12:01:54;23.20;;;9.75;;
45402;SDS011;47427;51.976;5.326;2023-11-18T12:04:58;18.85;;;9.38;;
45402;SDS011;47427;51.976;5.326;2023-11-18T12:08:07;12.88;;;8.00;;
45402;SDS011;47427;51.976;5.326;2023-11-18T12:11:13;24.30;;;9.25;;
45402;SDS011;47427;51.976;5.326;2023-11-18T12:14:18;11.93;;;8.05;;
45402;SDS011;47427;51.976;5.326;2023-11-18T12:17:22;23.77;;;6.50;;
45402;SDS011;47427;51.976;5.326;2023-11-18T12:20:38;13.77;;;7.72;;
45402;SDS011;47427;51.976;5.326;2023-11-18T12:30:54;11.65;;;7.03;;
45402;SDS011;47427;51.976;5.326;2023-11-18T12:37:12;22.52;;;8.80;;
45402;SDS011;47427;51.976;5.326;2023-11-18T12:41:08;17.17;;;7.88;;
45402;SDS011;47427;51.976;5.326;2023-11-18T12:47:23;13.05;;;6.07;;
45402;SDS011;47427;51.976;5.326;2023-11-18T12:50:29;12.50;;;6.15;;
45402;SDS011;47427;51.976;5.326;2023-11-18T12:53:33;11.35;;;6.72;;
45402;SDS011;47427;51.976;5.326;2023-11-18T12:56:36;13.27;;;7.45;;
45402;SDS011;47427;51.976;5.326;2023-11-18T12:59:46;15.23;;;6.47;;
45402;SDS011;47427;51.976;5.326;2023-11-18T13:02:48;24.77;;;7.45;;
45402;SDS011;47427;51.976;5.326;2023-11-18T13:05:51;9.95;;;5.90;;
45402;SDS011;47427;51.976;5.326;2023-11-18T13:08:54;20.60;;;7.45;;
45402;SDS011;47427;51.976;5.326;2023-11-18T13:11:58;12.13;;;6.00;;
45402;SDS011;47427;51.976;5.326;2023-11-18T13:15:07;18.38;;;7.85;;
45402;SDS011;47427;51.976;5.326;2023-11-18T13:18:10;11.50;;;6.50;;
45402;SDS011;47427;51.976;5.326;2023-11-18T13:21:13;14.73;;;6.20;;
45402;SDS011;47427;51.976;5.326;2023-11-18T13:24:20;10.02;;;5.88;;
45402;SDS011;47427;51.976;5.326;2023-11-18T13:27:23;6.50;;;4.70;;
45402;SDS011;47427;51.976;5.326;2023-11-18T13:30:27;15.60;;;6.05;;
45402;SDS011;47427;51.976;5.326;2023-11-18T13:33:29;12.60;;;5.43;;
45402;SDS011;47427;51.976;5.326;2023-11-18T13:36:32;13.52;;;6.43;;
45402;SDS011;47427;51.976;5.326;2023-11-18T13:39:35;13.35;;;6.32;;
45402;SDS011;47427;51.976;5.326;2023-11-18T13:42:40;11.30;;;5.13;;
45402;SDS011;47427;51.976;5.326;2023-11-18T13:45:42;11.30;;;6.53;;
45402;SDS011;47427;51.976;5.326;2023-11-18T13:48:47;9.88;;;5.13;;
45402;SDS011;47427;51.976;5.326;2023-11-18T13:51:54;10.82;;;4.75;;
45402;SDS011;47427;51.976;5.326;2023-11-18T13:54:58;9.90;;;4.60;;
45402;SDS011;47427;51.976;5.326;2023-11-18T13:58:02;10.00;;;5.53;;
45402;SDS011;47427;51.976;5.326;2023-11-18T14:01:06;7.13;;;4.10;;
45402;SDS011;47427;51.976;5.326;2023-11-18T14:04:10;10.65;;;5.35;;
45402;SDS011;47427;51.976;5.326;2023-11-18T14:07:14;7.25;;;4.38;;
45402;SDS011;47427;51.976;5.326;2023-11-18T14:10:19;8.73;;;4.50;;
45402;SDS011;47427;51.976;5.326;2023-11-18T14:13:20;9.13;;;4.72;;
45402;SDS011;47427;51.976;5.326;2023-11-18T14:16:24;11.35;;;5.20;;
45402;SDS011;47427;51.976;5.326;2023-11-18T14:19:28;11.50;;;5.03;;
45402;SDS011;47427;51.976;5.326;2023-11-18T14:22:31;7.53;;;4.38;;
45402;SDS011;47427;51.976;5.326;2023-11-18T14:25:37;7.97;;;4.80;;
45402;SDS011;47427;51.976;5.326;2023-11-18T14:28:40;6.55;;;4.47;;
45402;SDS011;47427;51.976;5.326;2023-11-18T14:31:44;6.13;;;4.30;;
45402;SDS011;47427;51.976;5.326;2023-11-18T14:34:48;7.43;;;5.10;;
45402;SDS011;47427;51.976;5.326;2023-11-18T14:37:50;5.63;;;3.30;;
45402;SDS011;47427;51.976;5.326;2023-11-18T14:40:53;5.20;;;3.53;;
45402;SDS011;47427;51.976;5.326;2023-11-18T14:43:56;5.00;;;4.13;;
45402;SDS011;47427;51.976;5.326;2023-11-18T14:46:59;7.45;;;5.15;;
45402;SDS011;47427;51.976;5.326;2023-11-18T14:50:01;5.78;;;4.65;;
45402;SDS011;47427;51.976;5.326;2023-11-18T14:53:07;6.13;;;4.35;;
45402;SDS011;47427;51.976;5.326;2023-11-18T14:56:10;4.00;;;3.50;;
45402;SDS011;47427;51.976;5.326;2023-11-18T14:59:12;6.38;;;3.97;;
45402;SDS011;47427;51.976;5.326;2023-11-18T15:02:14;7.80;;;4.00;;
45402;SDS011;47427;51.976;5.326;2023-11-18T15:05:17;9.90;;;4.78;;
45402;SDS011;47427;51.976;5.326;2023-11-18T15:08:21;11.85;;;5.63;;
45402;SDS011;47427;51.976;5.326;2023-11-18T15:11:24;9.43;;;5.20;;
45402;SDS011;47427;51.976;5.326;2023-11-18T15:14:26;6.32;;;4.57;;
45402;SDS011;47427;51.976;5.326;2023-11-18T15:17:28;6.88;;;4.93;;
45402;SDS011;47427;51.976;5.326;2023-11-18T15:20:31;6.78;;;5.18;;
45402;SDS011;47427;51.976;5.326;2023-11-18T15:23:34;6.90;;;5.85;;
45402;SDS011;47427;51.976;5.326;2023-11-18T15:26:37;7.97;;;5.15;;
45402;SDS011;47427;51.976;5.326;2023-11-18T15:29:39;5.65;;;4.18;;
45402;SDS011;47427;51.976;5.326;2023-11-18T15:32:51;5.18;;;4.13;;
45402;SDS011;47427;51.976;5.326;2023-11-18T15:35:54;4.38;;;3.55;;
45402;SDS011;47427;51.976;5.326;2023-11-18T15:38:56;6.88;;;5.00;;
45402;SDS011;47427;51.976;5.326;2023-11-18T15:42:05;6.05;;;4.90;;
45402;SDS011;47427;51.976;5.326;2023-11-18T15:45:08;4.68;;;3.83;;
45402;SDS011;47427;51.976;5.326;2023-11-18T15:48:15;8.18;;;5.15;;
45402;SDS011;47427;51.976;5.326;2023-11-18T15:51:17;9.18;;;4.00;;
45402;SDS011;47427;51.976;5.326;2023-11-18T15:54:21;6.28;;;4.60;;
45402;SDS011;47427;51.976;5.326;2023-11-18T15:57:24;5.32;;;4.03;;
45402;SDS011;47427;51.976;5.326;2023-11-18T16:00:27;5.50;;;4.05;;
45402;SDS011;47427;51.976;5.326;2023-11-18T16:03:30;7.47;;;4.45;;
45402;SDS011;47427;51.976;5.326;2023-11-18T16:06:33;3.78;;;3.45;;
45402;SDS011;47427;51.976;5.326;2023-11-18T16:09:35;4.40;;;3.55;;
45402;SDS011;47427;51.976;5.326;2023-11-18T16:12:38;4.88;;;3.58;;
45402;SDS011;47427;51.976;5.326;2023-11-18T16:15:42;7.70;;;4.82;;
45402;SDS011;47427;51.976;5.326;2023-11-18T16:18:43;6.47;;;4.43;;
45402;SDS011;47427;51.976;5.326;2023-11-18T16:21:46;5.38;;;4.75;;
45402;SDS011;47427;51.976;5.326;2023-11-18T16:24:49;4.28;;;3.70;;
45402;SDS011;47427;51.976;5.326;2023-11-18T16:27:53;5.22;;;3.80;;
45402;SDS011;47427;51.976;5.326;2023-11-18T16:30:56;5.05;;;2.42;;
45402;SDS011;47427;51.976;5.326;2023-11-18T16:33:59;6.30;;;4.50;;
45402;SDS011;47427;51.976;5.326;2023-11-18T16:37:03;4.50;;;3.65;;
45402;SDS011;47427;51.976;5.326;2023-11-18T16:40:06;5.32;;;4.20;;
45402;SDS011;47427;51.976;5.326;2023-11-18T16:43:16;7.63;;;4.43;;
45402;SDS011;47427;51.976;5.326;2023-11-18T16:46:19;5.63;;;5.00;;
45402;SDS011;47427;51.976;5.326;2023-11-18T16:49:26;7.63;;;5.45;;
45402;SDS011;47427;51.976;5.326;2023-11-18T16:52:30;6.22;;;5.63;;
45402;SDS011;47427;51.976;5.326;2023-11-18T16:55:32;9.38;;;6.72;;
45402;SDS011;47427;51.976;5.326;2023-11-18T16:58:36;6.38;;;5.15;;
45402;SDS011;47427;51.976;5.326;2023-11-18T17:01:41;8.40;;;5.50;;
45402;SDS011;47427;51.976;5.326;2023-11-18T17:04:44;7.78;;;6.13;;
45402;SDS011;47427;51.976;5.326;2023-11-18T17:07:46;8.13;;;6.97;;
45402;SDS011;47427;51.976;5.326;2023-11-18T17:10:48;9.88;;;7.70;;
45402;SDS011;47427;51.976;5.326;2023-11-18T17:13:55;6.55;;;5.60;;
45402;SDS011;47427;51.976;5.326;2023-11-18T17:16:58;8.55;;;6.95;;
45402;SDS011;47427;51.976;5.326;2023-11-18T17:20:00;7.05;;;6.35;;
45402;SDS011;47427;51.976;5.326;2023-11-18T17:23:02;6.95;;;5.97;;
45402;SDS011;47427;51.976;5.326;2023-11-18T17:26:06;9.20;;;7.65;;
45402;SDS011;47427;51.976;5.326;2023-11-18T17:29:11;9.80;;;7.95;;
45402;SDS011;47427;51.976;5.326;2023-11-18T17:32:15;9.80;;;8.10;;
45402;SDS011;47427;51.976;5.326;2023-11-18T17:35:18;10.68;;;8.88;;
45402;SDS011;47427;51.976;5.326;2023-11-18T17:38:22;10.05;;;7.68;;
45402;SDS011;47427;51.976;5.326;2023-11-18T17:41:24;9.00;;;7.43;;
45402;SDS011;47427;51.976;5.326;2023-11-18T17:44:26;11.93;;;9.32;;
45402;SDS011;47427;51.976;5.326;2023-11-18T17:47:30;10.50;;;9.10;;
45402;SDS011;47427;51.976;5.326;2023-11-18T17:50:36;15.00;;;11.20;;
45402;SDS011;47427;51.976;5.326;2023-11-18T17:53:39;14.50;;;11.60;;
45402;SDS011;47427;51.976;5.326;2023-11-18T17:56:40;14.30;;;12.13;;
45402;SDS011;47427;51.976;5.326;2023-11-18T17:59:43;17.90;;;13.07;;
45402;SDS011;47427;51.976;5.326;2023-11-18T18:02:46;19.70;;;14.18;;
45402;SDS011;47427;51.976;5.326;2023-11-18T18:05:49;20.48;;;14.80;;
45402;SDS011;47427;51.976;5.326;2023-11-18T18:08:51;19.70;;;15.48;;
45402;SDS011;47427;51.976;5.326;2023-11-18T18:11:55;19.73;;;15.20;;
45402;SDS011;47427;51.976;5.326;2023-11-18T18:14:58;23.05;;;17.52;;
45402;SDS011;47427;51.976;5.326;2023-11-18T18:18:00;20.98;;;17.35;;
45402;SDS011;47427;51.976;5.326;2023-11-18T18:21:02;24.25;;;17.27;;
45402;SDS011;47427;51.976;5.326;2023-11-18T18:24:06;22.13;;;15.68;;
45402;SDS011;47427;51.976;5.326;2023-11-18T18:27:09;23.50;;;16.15;;
45402;SDS011;47427;51.976;5.326;2023-11-18T18:30:13;29.08;;;21.25;;
45402;SDS011;47427;51.976;5.326;2023-11-18T18:33:16;21.90;;;17.95;;
45402;SDS011;47427;51.976;5.326;2023-11-18T18:36:20;24.60;;;17.65;;
45402;SDS011;47427;51.976;5.326;2023-11-18T18:39:22;23.40;;;18.73;;